createdAt,value
2022-10-04T00:02:02.812Z,19.10
2022-10-04T00:04:46.800Z,19.10
2022-10-04T00:07:16.944Z,19.10
2022-10-04T00:09:54.981Z,19.10
2022-10-04T00:12:27.456Z,19.20
2022-10-04T00:15:04.166Z,19.20
2022-10-04T00:17:37.324Z,19.20
2022-10-04T00:20:45.795Z,19.20
2022-10-04T00:23:32.498Z,19.30
2022-10-04T00:26:09.229Z,19.20
2022-10-04T00:28:39.453Z,19.30
2022-10-04T00:31:15.246Z,19.30
2022-10-04T00:33:48.523Z,19.40
2022-10-04T00:36:28.075Z,19.40
2022-10-04T00:39:12.564Z,19.40
2022-10-04T00:41:52.073Z,19.50
2022-10-04T00:44:25.871Z,19.50
2022-10-04T00:46:58.835Z,19.50
2022-10-04T00:49:35.027Z,19.50
2022-10-04T00:52:15.485Z,19.50
2022-10-04T00:54:52.821Z,19.60
2022-10-04T00:57:37.413Z,19.60
2022-10-04T01:00:23.599Z,19.60
2022-10-04T01:03:26.848Z,19.70
2022-10-04T01:06:01.207Z,19.60
2022-10-04T01:08:53.981Z,19.60
2022-10-04T01:11:47.256Z,19.70
2022-10-04T01:14:27.696Z,19.60
2022-10-04T01:16:58.204Z,19.70
2022-10-04T01:19:28.497Z,19.70
2022-10-04T01:22:13.144Z,19.70
2022-10-04T01:24:45.881Z,19.80
2022-10-04T01:27:45.736Z,19.70
2022-10-04T01:30:21.996Z,19.80
2022-10-04T01:32:53.079Z,19.80
2022-10-04T01:35:23.373Z,19.80
2022-10-04T01:37:53.617Z,19.80
2022-10-04T01:40:23.928Z,19.90
2022-10-04T01:42:58.953Z,19.90
2022-10-04T01:45:42.819Z,19.90
2022-10-04T01:48:18.946Z,19.90
2022-10-04T01:51:01.051Z,19.90
2022-10-04T01:53:43.010Z,19.90
2022-10-04T01:56:32.512Z,20.00
2022-10-04T01:59:06.936Z,20.00
2022-10-04T02:02:06.548Z,20.00
2022-10-04T02:04:41.309Z,20.10
2022-10-04T02:07:16.562Z,20.10
2022-10-04T02:09:52.014Z,20.10
2022-10-04T02:12:22.871Z,20.20
2022-10-04T02:14:57.277Z,20.20
2022-10-04T02:17:34.398Z,20.20
2022-10-04T02:20:05.726Z,20.20
2022-10-04T02:22:36.269Z,20.20
2022-10-04T02:25:07.030Z,20.20
2022-10-04T02:27:37.433Z,20.20
2022-10-04T02:30:11.509Z,20.30
2022-10-04T02:32:59.983Z,20.30
2022-10-04T02:35:37.342Z,20.30
2022-10-04T02:38:21.786Z,20.30
2022-10-04T02:41:07.057Z,20.30
2022-10-04T02:43:59.470Z,20.30
2022-10-04T02:47:11.974Z,20.30
2022-10-04T02:49:54.789Z,20.30
2022-10-04T02:52:28.422Z,20.40
2022-10-04T02:55:18.709Z,20.40
2022-10-04T02:58:32.367Z,20.40
2022-10-04T03:01:16.110Z,20.40
2022-10-04T03:03:49.540Z,20.40
2022-10-04T03:06:22.817Z,20.40
2022-10-04T03:09:03.465Z,20.50
2022-10-04T03:11:39.105Z,20.50
2022-10-04T03:14:22.655Z,20.50
2022-10-04T03:17:02.455Z,20.50
2022-10-04T03:19:34.777Z,20.50
2022-10-04T03:22:12.515Z,20.50
2022-10-04T03:24:55.582Z,20.50
2022-10-04T03:27:35.843Z,20.60
2022-10-04T03:30:06.665Z,20.60
2022-10-04T03:32:37.105Z,20.60
2022-10-04T03:35:10.421Z,20.60
2022-10-04T03:37:43.043Z,20.60
2022-10-04T03:40:14.145Z,20.70
2022-10-04T03:42:46.761Z,20.70
2022-10-04T03:45:20.783Z,20.70
2022-10-04T03:47:53.415Z,20.70
2022-10-04T03:50:35.239Z,20.70
2022-10-04T03:53:44.766Z,20.70
2022-10-04T03:56:43.546Z,20.70
2022-10-04T03:59:19.896Z,20.70
2022-10-04T04:02:33.304Z,20.70
2022-10-04T04:05:33.342Z,20.70
2022-10-04T04:08:30.518Z,20.80
2022-10-04T04:11:04.605Z,20.80
2022-10-04T04:14:01.237Z,20.70
2022-10-04T04:16:31.623Z,20.80
2022-10-04T04:19:06.092Z,20.80
2022-10-04T04:21:36.417Z,20.80
2022-10-04T04:24:14.069Z,20.80
2022-10-04T04:26:51.378Z,20.80
2022-10-04T04:29:25.142Z,20.80
2022-10-04T04:32:03.207Z,20.80
2022-10-04T04:34:50.992Z,20.90
2022-10-04T04:37:22.152Z,20.90
2022-10-04T04:39:59.553Z,20.90
2022-10-04T04:42:34.001Z,20.90
2022-10-04T04:45:20.715Z,20.90
2022-10-04T04:48:02.812Z,20.90
2022-10-04T04:50:42.094Z,20.90
2022-10-04T04:53:18.430Z,20.90
2022-10-04T04:56:10.947Z,20.90
2022-10-04T04:58:48.245Z,20.90
2022-10-04T05:01:28.901Z,20.90
2022-10-04T05:04:05.159Z,21.00
2022-10-04T05:06:37.444Z,20.90
2022-10-04T05:09:08.782Z,20.90
2022-10-04T05:11:41.427Z,20.90
2022-10-04T05:14:14.794Z,20.90
2022-10-04T05:16:56.728Z,20.90
2022-10-04T05:19:32.828Z,20.90
2022-10-04T05:22:12.824Z,20.90
2022-10-04T05:24:51.022Z,20.90
2022-10-04T05:27:41.884Z,20.90
2022-10-04T05:30:26.161Z,20.90
2022-10-04T05:33:07.042Z,20.90
2022-10-04T05:36:04.893Z,20.90
2022-10-04T05:39:10.888Z,20.90
2022-10-04T05:41:59.440Z,20.90
2022-10-04T05:44:37.924Z,20.90
2022-10-04T05:47:11.030Z,20.90
2022-10-04T05:49:51.011Z,20.90
2022-10-04T05:52:32.121Z,20.90
2022-10-04T05:55:20.812Z,20.90
2022-10-04T05:58:08.598Z,20.90
2022-10-04T06:00:53.454Z,20.90
2022-10-04T06:03:34.244Z,20.80
2022-10-04T06:06:11.897Z,20.80
2022-10-04T06:09:15.973Z,20.80
2022-10-04T06:11:54.770Z,20.90
2022-10-04T06:14:32.571Z,20.80
2022-10-04T06:17:39.905Z,20.80
2022-10-04T06:20:15.858Z,20.80
2022-10-04T06:23:08.225Z,20.80
2022-10-04T06:26:07.873Z,20.80
2022-10-04T06:28:49.991Z,20.90
2022-10-04T06:31:38.112Z,20.90
2022-10-04T06:34:17.219Z,20.90
2022-10-04T06:37:17.276Z,20.90
2022-10-04T06:40:00.477Z,20.90
2022-10-04T06:43:03.985Z,20.90
2022-10-04T06:45:52.294Z,20.90
2022-10-04T06:48:29.529Z,20.90
2022-10-04T06:51:44.876Z,20.90
2022-10-04T06:54:42.170Z,20.90
2022-10-04T06:57:40.642Z,20.90
2022-10-04T07:00:29.684Z,20.90
2022-10-04T07:03:40.149Z,20.90
2022-10-04T07:06:12.963Z,20.90
2022-10-04T07:08:49.712Z,20.90
2022-10-04T07:11:51.885Z,21.00
2022-10-04T07:14:33.955Z,21.00
2022-10-04T07:17:14.027Z,20.90
2022-10-04T07:19:52.999Z,21.00
2022-10-04T07:22:28.198Z,21.00
2022-10-04T07:25:10.209Z,21.00
2022-10-04T07:28:22.551Z,21.00
2022-10-04T07:31:08.009Z,21.00
2022-10-04T07:33:50.449Z,20.90
2022-10-04T07:36:50.673Z,21.00
2022-10-04T07:39:35.826Z,21.00
2022-10-04T07:42:24.195Z,21.00
2022-10-04T07:45:19.671Z,21.00
2022-10-04T07:47:50.591Z,21.00
2022-10-04T07:50:31.897Z,21.00
2022-10-04T07:53:35.402Z,21.00
2022-10-04T07:56:27.781Z,21.00
2022-10-04T07:59:12.817Z,21.00
2022-10-04T08:01:50.823Z,21.00
2022-10-04T08:04:33.053Z,21.00
2022-10-04T08:07:17.626Z,21.00
2022-10-04T08:09:53.491Z,21.00
2022-10-04T08:12:32.464Z,21.00
2022-10-04T08:15:25.336Z,21.00
2022-10-04T08:18:29.056Z,21.00
2022-10-04T08:21:06.287Z,21.00
2022-10-04T08:24:16.947Z,21.00
2022-10-04T08:27:12.919Z,21.00
2022-10-04T08:30:19.913Z,21.00
2022-10-04T08:33:09.534Z,21.00
2022-10-04T08:35:50.910Z,21.00
2022-10-04T08:38:32.919Z,21.00
2022-10-04T08:41:22.844Z,20.90
2022-10-04T08:44:29.400Z,20.90
2022-10-04T08:47:23.970Z,21.00
2022-10-04T08:50:05.903Z,21.00
2022-10-04T08:52:58.861Z,21.00
2022-10-04T08:56:13.293Z,21.00
2022-10-04T08:58:55.203Z,20.90
2022-10-04T09:01:46.416Z,20.90
2022-10-04T09:04:48.517Z,20.90
2022-10-04T09:07:42.427Z,20.90
2022-10-04T09:10:35.963Z,20.90
2022-10-04T09:13:26.994Z,20.90
2022-10-04T09:16:10.736Z,20.90
2022-10-04T09:19:08.587Z,20.90
2022-10-04T09:21:47.809Z,20.90
2022-10-04T09:24:52.946Z,20.90
2022-10-04T09:27:59.578Z,20.90
2022-10-04T09:30:51.875Z,20.90
2022-10-04T09:33:40.167Z,20.90
2022-10-04T09:36:44.259Z,20.90
2022-10-04T09:39:32.656Z,20.90
2022-10-04T09:42:32.867Z,20.90
2022-10-04T09:45:18.313Z,20.90
2022-10-04T09:48:12.220Z,20.90
2022-10-04T09:51:09.557Z,20.80
2022-10-04T09:53:41.940Z,20.80
2022-10-04T09:56:35.828Z,20.80
2022-10-04T09:59:34.114Z,20.80
2022-10-04T10:02:42.539Z,20.80
2022-10-04T10:05:18.432Z,20.80
2022-10-04T10:08:11.777Z,20.80
2022-10-04T10:11:21.059Z,20.80
2022-10-04T10:14:24.431Z,20.80
2022-10-04T10:17:30.897Z,20.80
2022-10-04T10:20:31.353Z,20.80
2022-10-04T10:23:08.843Z,20.80
2022-10-04T10:25:49.015Z,20.80
2022-10-04T10:29:04.194Z,20.80
2022-10-04T10:32:02.411Z,20.80
2022-10-04T10:34:53.891Z,20.80
2022-10-04T10:37:41.204Z,20.70
2022-10-04T10:40:50.127Z,20.70
2022-10-04T10:43:37.981Z,20.70
2022-10-04T10:46:21.857Z,20.70
2022-10-04T10:49:00.596Z,20.70
2022-10-04T10:51:45.792Z,20.70
2022-10-04T10:54:43.036Z,20.70
2022-10-04T10:57:52.613Z,20.70
2022-10-04T11:00:42.257Z,20.80
2022-10-04T11:03:50.129Z,20.70
2022-10-04T11:06:32.700Z,20.70
2022-10-04T11:09:31.671Z,20.70
2022-10-04T11:12:19.948Z,20.70
2022-10-04T11:15:08.456Z,20.70
2022-10-04T11:17:58.603Z,20.70
2022-10-04T11:20:40.823Z,20.70
2022-10-04T11:23:39.016Z,20.70
2022-10-04T11:26:27.492Z,20.70
2022-10-04T11:29:19.576Z,20.70
2022-10-04T11:32:04.897Z,20.70
2022-10-04T11:35:01.494Z,20.70
2022-10-04T11:37:52.665Z,20.70
2022-10-04T11:40:54.687Z,20.70
2022-10-04T11:43:34.047Z,20.70
2022-10-04T11:46:26.072Z,20.60
2022-10-04T11:49:10.486Z,20.60
2022-10-04T11:51:49.653Z,20.70
2022-10-04T11:54:45.909Z,20.60
2022-10-04T11:57:33.273Z,20.60
2022-10-04T12:00:03.415Z,20.60
2022-10-04T12:02:52.620Z,20.60
2022-10-04T12:05:46.836Z,20.60
2022-10-04T12:09:07.319Z,20.60
2022-10-04T12:12:13.593Z,20.60
2022-10-04T12:15:13.831Z,20.60
2022-10-04T12:18:08.243Z,20.50
2022-10-04T12:20:55.330Z,20.50
2022-10-04T12:24:01.791Z,20.50
2022-10-04T12:27:08.185Z,20.50
2022-10-04T12:29:47.219Z,20.40
2022-10-04T12:32:58.173Z,20.40
2022-10-04T12:35:35.476Z,20.40
2022-10-04T12:38:26.376Z,20.40
2022-10-04T12:41:13.763Z,20.40
2022-10-04T12:43:54.896Z,20.40
2022-10-04T12:46:25.312Z,20.40
2022-10-04T12:49:17.345Z,20.30
2022-10-04T12:52:05.570Z,20.40
2022-10-04T12:54:51.459Z,20.40
2022-10-04T12:57:47.941Z,20.40
2022-10-04T13:00:20.923Z,20.40
2022-10-04T13:03:06.527Z,20.30
2022-10-04T13:06:04.627Z,20.30
2022-10-04T13:09:03.311Z,20.30
2022-10-04T13:11:52.883Z,20.30
2022-10-04T13:14:44.342Z,20.30
2022-10-04T13:17:43.531Z,20.30
2022-10-04T13:20:46.715Z,20.20
2022-10-04T13:23:37.792Z,20.20
2022-10-04T13:26:29.159Z,20.20
2022-10-04T13:29:22.671Z,20.20
2022-10-04T13:32:15.874Z,20.10
2022-10-04T13:34:56.302Z,20.10
2022-10-04T13:37:37.542Z,20.10
2022-10-04T13:40:16.981Z,20.20
2022-10-04T13:42:56.130Z,20.10
2022-10-04T13:45:51.415Z,20.10
2022-10-04T13:48:24.915Z,20.10
2022-10-04T13:51:02.014Z,20.10
2022-10-04T13:54:23.621Z,20.00
2022-10-04T13:57:17.853Z,20.10
2022-10-04T14:00:16.791Z,20.00
2022-10-04T14:03:15.214Z,20.00
2022-10-04T14:05:54.454Z,20.00
2022-10-04T14:08:53.988Z,20.00
2022-10-04T14:11:52.652Z,20.00
2022-10-04T14:14:59.307Z,20.00
2022-10-04T14:17:38.108Z,20.00
2022-10-04T14:20:35.261Z,19.90
2022-10-04T14:23:22.722Z,19.90
2022-10-04T14:26:29.962Z,19.90
2022-10-04T14:29:09.594Z,19.90
2022-10-04T14:31:52.399Z,19.90
2022-10-04T14:34:40.512Z,19.90
2022-10-04T14:37:28.765Z,19.90
2022-10-04T14:40:25.894Z,19.90
2022-10-04T14:43:16.717Z,19.90
2022-10-04T14:46:08.907Z,19.80
2022-10-04T14:48:44.265Z,19.80
2022-10-04T14:51:21.070Z,19.80
2022-10-04T14:53:51.563Z,19.80
2022-10-04T14:56:37.863Z,19.80
2022-10-04T14:59:38.214Z,19.80
2022-10-04T15:02:33.275Z,19.80
2022-10-04T15:05:31.319Z,19.70
2022-10-04T15:08:33.547Z,19.70
2022-10-04T15:11:19.130Z,19.70
2022-10-04T15:14:04.495Z,19.70
2022-10-04T15:16:58.470Z,19.70
2022-10-04T15:20:01.081Z,19.70
2022-10-04T15:23:03.453Z,19.70
2022-10-04T15:25:40.442Z,19.60
2022-10-04T15:28:39.023Z,19.60
2022-10-04T15:31:29.980Z,19.60
2022-10-04T15:34:08.764Z,19.60
2022-10-04T15:36:50.903Z,19.60
2022-10-04T15:39:47.782Z,19.60
2022-10-04T15:42:30.251Z,19.60
2022-10-04T15:45:06.060Z,19.60
2022-10-04T15:48:23.346Z,19.60
2022-10-04T15:51:02.226Z,19.50
2022-10-04T15:53:47.296Z,19.50
2022-10-04T15:56:23.624Z,19.50
2022-10-04T15:59:38.136Z,19.50
2022-10-04T16:02:51.975Z,19.50
2022-10-04T16:05:28.231Z,19.50
2022-10-04T16:08:34.135Z,19.40
2022-10-04T16:11:37.862Z,19.50
2022-10-04T16:14:35.654Z,19.40
2022-10-04T16:17:23.921Z,19.40
2022-10-04T16:20:04.599Z,19.40
2022-10-04T16:22:39.931Z,19.40
2022-10-04T16:25:28.390Z,19.40
2022-10-04T16:28:05.964Z,19.40
2022-10-04T16:31:23.224Z,19.30
2022-10-04T16:34:05.089Z,19.30
2022-10-04T16:37:00.397Z,19.30
2022-10-04T16:40:07.376Z,19.30
2022-10-04T16:42:37.579Z,19.30
2022-10-04T16:45:10.919Z,19.30
2022-10-04T16:48:02.428Z,19.30
2022-10-04T16:50:50.676Z,19.30
2022-10-04T16:53:45.483Z,19.30
2022-10-04T16:56:19.548Z,19.20
2022-10-04T16:59:06.992Z,19.20
2022-10-04T17:01:42.927Z,19.20
2022-10-04T17:04:29.088Z,19.20
2022-10-04T17:07:23.221Z,19.20
2022-10-04T17:09:57.737Z,19.20
2022-10-04T17:12:50.012Z,19.20
2022-10-04T17:15:49.300Z,19.20
2022-10-04T17:18:37.957Z,19.10
2022-10-04T17:21:47.984Z,19.10
2022-10-04T17:25:08.625Z,19.10
2022-10-04T17:27:50.035Z,19.10
2022-10-04T17:30:23.128Z,19.10
2022-10-04T17:33:09.595Z,19.10
2022-10-04T17:36:08.553Z,19.10
2022-10-04T17:38:56.780Z,19.10
2022-10-04T17:41:48.021Z,19.10
2022-10-04T17:44:35.823Z,19.10
2022-10-04T17:47:26.681Z,19.10
2022-10-04T17:50:25.395Z,19.00
2022-10-04T17:53:20.810Z,19.00
2022-10-04T17:55:57.551Z,19.00
2022-10-04T17:58:46.806Z,19.00
2022-10-04T18:01:45.066Z,19.00
2022-10-04T18:04:25.180Z,19.00
2022-10-04T18:07:04.433Z,18.90
2022-10-04T18:09:52.839Z,18.90
2022-10-04T18:12:31.388Z,19.00
2022-10-04T18:15:23.317Z,18.90
2022-10-04T18:17:55.067Z,18.90
2022-10-04T18:20:37.303Z,18.90
2022-10-04T18:23:33.083Z,18.90
2022-10-04T18:26:12.679Z,18.90
2022-10-04T18:28:43.131Z,18.90
2022-10-04T18:31:41.329Z,18.90
2022-10-04T18:34:40.336Z,18.90
2022-10-04T18:37:35.317Z,18.90
2022-10-04T18:40:24.015Z,18.90
2022-10-04T18:42:59.166Z,18.80
2022-10-04T18:45:33.900Z,18.80
2022-10-04T18:48:16.868Z,18.80
2022-10-04T18:50:48.775Z,18.80
2022-10-04T18:53:52.633Z,18.80
2022-10-04T18:56:24.106Z,18.80
2022-10-04T18:59:39.827Z,18.70
2022-10-04T19:02:19.157Z,18.80
2022-10-04T19:04:59.708Z,18.80
2022-10-04T19:07:56.857Z,18.80
2022-10-04T19:10:34.532Z,18.80
2022-10-04T19:13:22.797Z,18.70
2022-10-04T19:16:26.218Z,18.70
2022-10-04T19:19:13.024Z,18.70
2022-10-04T19:21:48.194Z,18.70
2022-10-04T19:24:30.303Z,18.70
2022-10-04T19:27:06.972Z,18.70
2022-10-04T19:30:04.469Z,18.70
2022-10-04T19:32:37.685Z,18.70
2022-10-04T19:35:47.810Z,18.60
2022-10-04T19:38:32.703Z,18.70
2022-10-04T19:41:28.678Z,18.60
2022-10-04T19:44:22.424Z,18.60
2022-10-04T19:47:15.565Z,18.60
2022-10-04T19:50:05.270Z,18.60
2022-10-04T19:52:54.964Z,18.60
2022-10-04T19:55:45.546Z,18.50
2022-10-04T19:58:29.550Z,18.60
2022-10-04T20:00:59.899Z,18.60
2022-10-04T20:03:30.850Z,18.50
2022-10-04T20:06:01.412Z,18.60
2022-10-04T20:08:50.096Z,18.60
2022-10-04T20:11:20.590Z,18.60
2022-10-04T20:14:11.861Z,18.60
2022-10-04T20:16:51.511Z,18.60
2022-10-04T20:19:42.273Z,18.60
2022-10-04T20:22:15.492Z,18.50
2022-10-04T20:24:46.327Z,18.50
2022-10-04T20:27:37.917Z,18.50
2022-10-04T20:30:16.734Z,18.50
2022-10-04T20:32:47.095Z,18.50
2022-10-04T20:35:54.956Z,18.60
2022-10-04T20:38:55.529Z,18.60
2022-10-04T20:41:54.477Z,18.70
2022-10-04T20:44:43.088Z,18.70
2022-10-04T20:47:42.753Z,18.70
2022-10-04T20:50:13.543Z,18.70
2022-10-04T20:52:54.426Z,18.70
2022-10-04T20:55:37.068Z,18.80
2022-10-04T20:58:25.208Z,18.80
2022-10-04T21:00:57.265Z,18.90
2022-10-04T21:03:27.917Z,18.80
2022-10-04T21:06:10.812Z,18.90
2022-10-04T21:08:42.716Z,18.90
2022-10-04T21:11:19.878Z,18.90
2022-10-04T21:13:52.384Z,18.90
2022-10-04T21:16:44.361Z,18.90
2022-10-04T21:19:40.396Z,19.00
2022-10-04T21:22:34.308Z,19.00
2022-10-04T21:25:29.378Z,19.00
2022-10-04T21:28:25.786Z,19.00
2022-10-04T21:30:55.978Z,19.00
2022-10-04T21:33:26.159Z,19.00
2022-10-04T21:35:56.304Z,19.00
2022-10-04T21:38:27.099Z,19.10
2022-10-04T21:40:57.887Z,19.10
2022-10-04T21:43:28.418Z,19.10
2022-10-04T21:45:58.921Z,19.10
2022-10-04T21:48:29.283Z,19.10
2022-10-04T21:50:59.439Z,19.10
2022-10-04T21:53:29.530Z,19.20
2022-10-04T21:55:59.730Z,19.20
2022-10-04T21:58:29.964Z,19.20
2022-10-04T22:01:00.281Z,19.20
2022-10-04T22:03:30.616Z,19.20
2022-10-04T22:06:00.792Z,19.30
2022-10-04T22:08:31.007Z,19.30
2022-10-04T22:11:01.208Z,19.30
2022-10-04T22:13:31.560Z,19.30
2022-10-04T22:16:01.830Z,19.30
2022-10-04T22:18:33.239Z,19.30
2022-10-04T22:21:04.015Z,19.30
2022-10-04T22:23:41.162Z,19.30
2022-10-04T22:26:18.851Z,19.30
2022-10-04T22:28:58.085Z,19.40
2022-10-04T22:31:31.224Z,19.40
2022-10-04T22:34:01.764Z,19.40
2022-10-04T22:36:41.945Z,19.40
2022-10-04T22:39:12.303Z,19.50
2022-10-04T22:41:43.795Z,19.50
2022-10-04T22:44:16.958Z,19.50
2022-10-04T22:46:53.712Z,19.50
2022-10-04T22:49:29.188Z,19.50
2022-10-04T22:52:01.148Z,19.50
2022-10-04T22:54:36.897Z,19.60
2022-10-04T22:57:07.117Z,19.60
2022-10-04T22:59:43.067Z,19.60
2022-10-04T23:02:33.109Z,19.70
2022-10-04T23:05:23.468Z,19.70
2022-10-04T23:07:54.274Z,19.70
2022-10-04T23:10:24.772Z,19.70
2022-10-04T23:12:55.569Z,19.70
2022-10-04T23:15:25.729Z,19.70
2022-10-04T23:17:58.984Z,19.80
2022-10-04T23:20:31.808Z,19.80
2022-10-04T23:23:02.601Z,19.80
2022-10-04T23:25:33.405Z,19.80
2022-10-04T23:28:15.745Z,19.80
2022-10-04T23:31:06.645Z,19.90
2022-10-04T23:33:37.404Z,19.90
2022-10-04T23:36:13.941Z,19.90
2022-10-04T23:38:58.677Z,19.90
2022-10-04T23:41:29.563Z,19.90
2022-10-04T23:43:59.923Z,19.90
2022-10-04T23:46:32.959Z,19.90
2022-10-04T23:49:03.191Z,19.90
2022-10-04T23:51:33.545Z,20.00
2022-10-04T23:54:03.739Z,20.00
2022-10-04T23:56:34.075Z,20.00
2022-10-04T23:59:04.192Z,20.00
